Time;durP1;ratioP1;P1;durP2;ratioP2;P2;SDS_P1;SDS_P2;PMS_P1;PMS_P2;Temp;Humidity;BMP_temperature;BMP_pressure;BME280_temperature;BME280_humidity;BME280_pressure;Samples;Min_cycle;Max_cycle;Signal;HPM_P1;HPM_P2
2020/12/16 00:01:23;;;;;;;16.48;12.43;;;;;;;;;;5094027;28;20389;-72
2020/12/16 00:03:49;;;;;;;22.95;15.55;;;;;;;;;;5095152;28;20051;-72
2020/12/16 00:06:15;;;;;;;21.83;15.18;;;;;;;;;;5094764;28;20043;-72
2020/12/16 00:08:41;;;;;;;22.08;16.10;;;;;;;;;;5094636;28;20506;-72
2020/12/16 00:11:06;;;;;;;20.75;14.57;;;;;;;;;;5094249;28;20028;-72
2020/12/16 00:13:32;;;;;;;16.08;11.60;;;;;;;;;;5093312;28;20067;-72
2020/12/16 00:15:57;;;;;;;18.65;12.65;;;;;;;;;;5094103;28;20067;-72
2020/12/16 00:18:23;;;;;;;18.20;12.32;;;;;;;;;;5094784;28;20047;-72
2020/12/16 00:20:48;;;;;;;15.65;11.45;;;;;;;;;;5094074;28;20040;-72
2020/12/16 00:23:14;;;;;;;13.77;10.57;;;;;;;;;;5094248;28;20043;-71
2020/12/16 00:25:39;;;;;;;13.57;10.35;;;;;;;;;;5093952;28;20105;-72
2020/12/16 00:28:05;;;;;;;14.88;11.25;;;;;;;;;;5094814;28;20494;-72
2020/12/16 00:30:30;;;;;;;17.48;12.43;;;;;;;;;;5092840;28;20040;-72
2020/12/16 00:32:56;;;;;;;15.07;11.18;;;;;;;;;;5094239;28;20043;-72
2020/12/16 00:35:21;;;;;;;16.90;12.13;;;;;;;;;;5093929;28;20036;-72
2020/12/16 00:37:46;;;;;;;21.20;14.85;;;;;;;;;;5094541;28;20043;-72
2020/12/16 00:40:13;;;;;;;17.02;12.63;;;;;;;;;;5094276;28;20069;-72
2020/12/16 00:42:39;;;;;;;14.52;11.20;;;;;;;;;;5093931;28;20039;-72
2020/12/16 00:45:06;;;;;;;17.67;11.45;;;;;;;;;;5093971;28;20032;-72
2020/12/16 00:47:33;;;;;;;13.50;10.73;;;;;;;;;;5094172;28;20104;-72
2020/12/16 00:49:59;;;;;;;15.38;10.77;;;;;;;;;;5094200;28;20036;-72
2020/12/16 00:52:28;;;;;;;16.48;12.70;;;;;;;;;;5092989;28;20032;-72
2020/12/16 00:54:55;;;;;;;19.05;13.48;;;;;;;;;;5092329;28;20032;-72
2020/12/16 00:57:21;;;;;;;26.45;16.90;;;;;;;;;;5092537;28;20052;-72
2020/12/16 00:59:47;;;;;;;32.88;20.23;;;;;;;;;;5093511;28;20547;-72
2020/12/16 01:02:12;;;;;;;42.40;23.20;;;;;;;;;;5092491;28;20554;-72
2020/12/16 01:04:38;;;;;;;36.35;20.60;;;;;;;;;;5092636;28;20032;-72
2020/12/16 01:07:04;;;;;;;26.05;17.95;;;;;;;;;;5092604;28;20394;-72
2020/12/16 01:09:29;;;;;;;21.70;14.82;;;;;;;;;;5093294;28;20031;-72
2020/12/16 01:11:55;;;;;;;33.00;20.30;;;;;;;;;;5091707;28;20024;-72
2020/12/16 01:14:21;;;;;;;35.10;20.42;;;;;;;;;;5090634;28;20516;-72
2020/12/16 01:16:46;;;;;;;26.98;18.67;;;;;;;;;;5090331;28;20039;-72
2020/12/16 01:19:16;;;;;;;20.30;14.55;;;;;;;;;;5074153;28;20043;-72
2020/12/16 01:21:45;;;;;;;16.85;12.70;;;;;;;;;;5091100;28;20058;-72
2020/12/16 01:24:10;;;;;;;15.77;12.02;;;;;;;;;;5090563;28;20055;-72
2020/12/16 01:26:46;;;;;;;15.55;11.80;;;;;;;;;;5090638;28;20118;-72
2020/12/16 01:29:16;;;;;;;17.40;12.73;;;;;;;;;;5092433;28;20039;-72
2020/12/16 01:31:46;;;;;;;16.42;12.52;;;;;;;;;;5093104;28;20032;-72
2020/12/16 01:34:22;;;;;;;22.58;13.40;;;;;;;;;;5091055;28;20052;-72
2020/12/16 01:36:55;;;;;;;18.05;13.10;;;;;;;;;;5090719;28;20073;-72
2020/12/16 01:39:20;;;;;;;17.55;13.55;;;;;;;;;;5091964;28;20036;-72
2020/12/16 01:41:48;;;;;;;20.88;13.75;;;;;;;;;;5091967;28;20474;-72
2020/12/16 01:44:19;;;;;;;16.80;12.15;;;;;;;;;;5092321;28;20062;-72
2020/12/16 01:46:54;;;;;;;18.08;12.43;;;;;;;;;;5075389;28;20516;-72
2020/12/16 01:49:25;;;;;;;14.02;11.00;;;;;;;;;;5091028;28;20402;-72
2020/12/16 01:51:53;;;;;;;17.65;12.73;;;;;;;;;;5092164;28;20028;-72
2020/12/16 01:54:21;;;;;;;16.88;13.05;;;;;;;;;;5093273;28;20055;-72
2020/12/16 01:57:00;;;;;;;15.40;12.13;;;;;;;;;;5075111;28;20070;-72
2020/12/16 01:59:42;;;;;;;16.70;11.57;;;;;;;;;;5090384;28;20044;-72
2020/12/16 02:02:18;;;;;;;13.57;10.57;;;;;;;;;;5090741;28;20397;-72
2020/12/16 02:04:46;;;;;;;14.65;10.60;;;;;;;;;;5089798;28;20024;-72
2020/12/16 02:07:13;;;;;;;19.88;14.05;;;;;;;;;;5090605;28;20064;-72
2020/12/16 02:09:44;;;;;;;13.93;10.32;;;;;;;;;;5092130;28;20038;-72
2020/12/16 02:12:18;;;;;;;16.25;11.95;;;;;;;;;;5091311;28;20115;-72
2020/12/16 02:14:44;;;;;;;16.17;11.27;;;;;;;;;;5091455;28;20024;-72
2020/12/16 02:17:13;;;;;;;13.30;10.45;;;;;;;;;;5091488;28;20085;-72
2020/12/16 02:19:55;;;;;;;13.70;10.50;;;;;;;;;;5091827;28;20024;-72
2020/12/16 02:22:21;;;;;;;14.07;11.25;;;;;;;;;;5094602;28;20123;-72
2020/12/16 02:24:59;;;;;;;16.33;11.80;;;;;;;;;;5094453;28;20062;-72
2020/12/16 02:27:28;;;;;;;17.08;12.18;;;;;;;;;;5077052;28;20028;-72
2020/12/16 02:29:55;;;;;;;13.00;10.27;;;;;;;;;;5094452;28;20040;-72
2020/12/16 02:32:41;;;;;;;24.35;16.48;;;;;;;;;;5096459;28;20477;-72
2020/12/16 02:35:07;;;;;;;23.08;15.20;;;;;;;;;;5095576;28;20081;-72
2020/12/16 02:37:33;;;;;;;20.77;13.13;;;;;;;;;;5095068;28;20119;-72
2020/12/16 02:39:59;;;;;;;17.05;11.73;;;;;;;;;;5095582;28;20046;-72
2020/12/16 02:42:28;;;;;;;16.60;12.65;;;;;;;;;;5096160;28;20028;-72
2020/12/16 02:44:57;;;;;;;15.48;11.75;;;;;;;;;;5095420;28;20054;-72
2020/12/16 02:47:30;;;;;;;19.10;12.45;;;;;;;;;;5095179;28;20409;-72
2020/12/16 02:49:55;;;;;;;17.55;12.60;;;;;;;;;;5094412;28;20032;-72
2020/12/16 02:52:21;;;;;;;24.48;15.20;;;;;;;;;;5095749;28;20036;-72
2020/12/16 02:54:46;;;;;;;19.00;13.43;;;;;;;;;;5096494;28;20123;-72
2020/12/16 02:57:20;;;;;;;16.35;13.05;;;;;;;;;;5094125;28;20422;-72
2020/12/16 02:59:54;;;;;;;21.23;14.38;;;;;;;;;;5093082;28;20040;-72
2020/12/16 03:02:40;;;;;;;17.77;13.18;;;;;;;;;;5095771;28;20032;-72
2020/12/16 03:05:37;;;;;;;19.65;14.15;;;;;;;;;;5072941;28;20068;-72
2020/12/16 03:08:07;;;;;;;20.15;14.40;;;;;;;;;;5094594;28;20039;-72
2020/12/16 03:10:39;;;;;;;19.70;14.68;;;;;;;;;;5094635;28;20032;-72
2020/12/16 03:13:05;;;;;;;17.05;13.75;;;;;;;;;;5094578;28;20028;-72
2020/12/16 03:15:32;;;;;;;30.10;17.92;;;;;;;;;;5095333;28;20032;-72
2020/12/16 03:17:58;;;;;;;21.60;16.05;;;;;;;;;;5094431;28;20042;-72
2020/12/16 03:20:24;;;;;;;17.75;13.63;;;;;;;;;;5094786;28;20460;-71
2020/12/16 03:22:49;;;;;;;21.35;14.82;;;;;;;;;;5094834;28;20032;-72
2020/12/16 03:25:41;;;;;;;24.05;16.58;;;;;;;;;;5095636;28;20041;-72
2020/12/16 03:28:19;;;;;;;19.48;14.55;;;;;;;;;;5093242;28;20056;-72
2020/12/16 03:31:07;;;;;;;22.15;14.75;;;;;;;;;;5093878;28;20135;-71
2020/12/16 03:33:47;;;;;;;26.95;17.98;;;;;;;;;;5093817;28;20032;-72
2020/12/16 03:36:34;;;;;;;23.02;15.13;;;;;;;;;;5094259;28;20042;-72
2020/12/16 03:39:04;;;;;;;22.67;15.63;;;;;;;;;;5093751;28;20028;-71
2020/12/16 03:41:30;;;;;;;58.92;19.10;;;;;;;;;;5095239;28;20043;-72
2020/12/16 03:43:59;;;;;;;24.15;16.17;;;;;;;;;;5093602;28;20030;-72
2020/12/16 03:46:26;;;;;;;21.52;14.85;;;;;;;;;;5094281;28;20028;-72
2020/12/16 03:48:53;;;;;;;33.38;18.63;;;;;;;;;;5076472;28;20028;-72
2020/12/16 03:51:21;;;;;;;47.90;21.73;;;;;;;;;;5093661;28;20039;-72
2020/12/16 03:53:53;;;;;;;144.55;25.02;;;;;;;;;;5095214;28;20059;-72
2020/12/16 03:56:48;;;;;;;68.95;21.23;;;;;;;;;;5057398;28;20045;-72
2020/12/16 03:59:34;;;;;;;46.15;20.98;;;;;;;;;;5087165;28;20056;-72
2020/12/16 04:02:22;;;;;;;46.75;22.88;;;;;;;;;;5093856;28;20059;-72
2020/12/16 04:05:01;;;;;;;29.25;17.70;;;;;;;;;;5093315;28;20043;-72
2020/12/16 04:07:28;;;;;;;27.58;17.60;;;;;;;;;;5093417;28;20401;-72
2020/12/16 04:10:04;;;;;;;24.50;15.40;;;;;;;;;;5095049;28;20092;-72
2020/12/16 04:12:29;;;;;;;26.00;16.15;;;;;;;;;;5093463;28;20036;-72
2020/12/16 04:14:55;;;;;;;21.58;14.85;;;;;;;;;;5092511;28;20028;-71
2020/12/16 04:17:20;;;;;;;22.00;15.23;;;;;;;;;;5093559;28;20176;-72
2020/12/16 04:20:12;;;;;;;69.55;17.90;;;;;;;;;;5092369;28;20035;-72
2020/12/16 04:22:48;;;;;;;70.90;18.52;;;;;;;;;;5093592;28;20393;-72
2020/12/16 04:25:14;;;;;;;24.00;16.45;;;;;;;;;;5094623;28;20035;-72
2020/12/16 04:27:40;;;;;;;21.25;14.32;;;;;;;;;;5093467;28;20044;-72
2020/12/16 04:30:06;;;;;;;23.27;14.40;;;;;;;;;;5092273;28;20036;-72
2020/12/16 04:32:38;;;;;;;20.83;14.85;;;;;;;;;;5093128;28;20028;-72
2020/12/16 04:35:03;;;;;;;21.27;15.25;;;;;;;;;;5093141;28;20040;-72
2020/12/16 04:37:29;;;;;;;21.40;13.13;;;;;;;;;;5092889;28;20086;-72
2020/12/16 04:39:58;;;;;;;19.48;13.77;;;;;;;;;;5093073;28;20032;-72
2020/12/16 04:42:25;;;;;;;24.02;12.95;;;;;;;;;;5092055;28;20544;-72
2020/12/16 04:44:50;;;;;;;17.48;12.05;;;;;;;;;;5092098;28;20051;-72
2020/12/16 04:47:21;;;;;;;21.17;12.82;;;;;;;;;;5093315;28;20028;-72
2020/12/16 04:49:53;;;;;;;25.02;15.95;;;;;;;;;;5092271;28;20484;-72
2020/12/16 04:52:23;;;;;;;31.75;19.13;;;;;;;;;;5092377;28;20078;-72
2020/12/16 04:55:03;;;;;;;40.72;20.55;;;;;;;;;;5092457;28;20089;-71
2020/12/16 04:57:35;;;;;;;27.92;18.25;;;;;;;;;;5092905;28;20024;-72
2020/12/16 05:00:00;;;;;;;22.30;14.93;;;;;;;;;;5092305;28;20063;-72
2020/12/16 05:03:00;;;;;;;23.60;14.85;;;;;;;;;;5093853;28;20118;-72
2020/12/16 05:05:44;;;;;;;23.13;15.63;;;;;;;;;;5093646;28;20047;-72
2020/12/16 05:08:14;;;;;;;21.63;15.18;;;;;;;;;;5093571;28;20044;-72
2020/12/16 05:10:42;;;;;;;19.33;13.85;;;;;;;;;;5093883;28;20485;-72
2020/12/16 05:13:12;;;;;;;18.17;13.30;;;;;;;;;;5093877;28;20462;-72
2020/12/16 05:15:39;;;;;;;17.67;13.25;;;;;;;;;;5093595;28;20028;-72
2020/12/16 05:18:09;;;;;;;16.92;12.65;;;;;;;;;;5093436;28;20032;-72
2020/12/16 05:20:36;;;;;;;21.95;14.77;;;;;;;;;;5093785;28;20032;-72
2020/12/16 05:23:03;;;;;;;17.83;13.07;;;;;;;;;;5092634;28;20071;-73
2020/12/16 05:25:28;;;;;;;18.77;13.18;;;;;;;;;;5092396;28;20024;-72
2020/12/16 05:27:54;;;;;;;17.30;13.27;;;;;;;;;;5093775;28;20378;-72
2020/12/16 05:30:20;;;;;;;21.45;13.38;;;;;;;;;;5092975;28;20036;-72
2020/12/16 05:32:46;;;;;;;14.60;11.57;;;;;;;;;;5093528;28;20043;-72
2020/12/16 05:35:26;;;;;;;18.48;13.77;;;;;;;;;;5093134;28;20039;-72
2020/12/16 05:38:00;;;;;;;39.92;20.90;;;;;;;;;;5093446;28;20024;-73
2020/12/16 05:40:26;;;;;;;57.03;21.60;;;;;;;;;;5093113;28;20028;-73
2020/12/16 05:42:51;;;;;;;28.45;19.95;;;;;;;;;;5091804;28;20104;-73
2020/12/16 05:45:23;;;;;;;32.58;21.15;;;;;;;;;;5091936;28;20466;-72
2020/12/16 05:48:06;;;;;;;64.90;24.35;;;;;;;;;;5093095;28;20047;-72
2020/12/16 05:50:39;;;;;;;27.55;19.33;;;;;;;;;;5092795;28;20032;-73
2020/12/16 05:53:25;;;;;;;31.42;18.92;;;;;;;;;;5093264;28;20040;-73
2020/12/16 05:55:58;;;;;;;24.10;16.40;;;;;;;;;;5093895;28;20070;-73
2020/12/16 05:58:31;;;;;;;21.05;15.13;;;;;;;;;;5097475;28;20088;-72
2020/12/16 06:00:58;;;;;;;19.35;14.68;;;;;;;;;;5096724;28;20047;-72
2020/12/16 06:03:29;;;;;;;19.60;13.48;;;;;;;;;;5096742;28;20077;-71
2020/12/16 06:06:00;;;;;;;19.80;14.23;;;;;;;;;;5095455;28;20173;-72
2020/12/16 06:08:29;;;;;;;19.42;14.07;;;;;;;;;;5094814;28;20096;-72
2020/12/16 06:10:54;;;;;;;31.20;17.85;;;;;;;;;;5096081;28;20648;-72
2020/12/16 06:13:21;;;;;;;43.63;19.13;;;;;;;;;;5096631;28;20040;-72
2020/12/16 06:15:54;;;;;;;23.08;16.67;;;;;;;;;;5094645;28;20121;-72
2020/12/16 06:18:27;;;;;;;24.17;17.05;;;;;;;;;;5096836;28;20040;-72
2020/12/16 06:20:53;;;;;;;43.28;20.55;;;;;;;;;;5096999;28;20412;-73
2020/12/16 06:23:25;;;;;;;28.00;18.33;;;;;;;;;;5097167;28;20050;-74
2020/12/16 06:25:52;;;;;;;25.08;17.73;;;;;;;;;;5097119;28;20370;-72
2020/12/16 06:28:19;;;;;;;22.10;16.45;;;;;;;;;;5097006;28;20032;-72
2020/12/16 06:31:21;;;;;;;20.20;15.20;;;;;;;;;;5096833;28;20064;-73
2020/12/16 06:33:58;;;;;;;22.30;15.20;;;;;;;;;;5097012;28;20462;-73
2020/12/16 06:36:29;;;;;;;24.52;15.40;;;;;;;;;;5096809;28;20458;-72
2020/12/16 06:38:55;;;;;;;18.58;14.95;;;;;;;;;;5096776;28;20081;-72
2020/12/16 06:41:29;;;;;;;22.23;16.52;;;;;;;;;;5096190;28;20493;-71
2020/12/16 06:43:56;;;;;;;18.85;15.77;;;;;;;;;;5096587;28;20028;-72
2020/12/16 06:46:34;;;;;;;27.75;18.65;;;;;;;;;;5095512;28;20069;-72
2020/12/16 06:49:05;;;;;;;20.58;15.85;;;;;;;;;;5096397;28;20050;-72
2020/12/16 06:51:30;;;;;;;18.17;14.73;;;;;;;;;;5096441;28;20074;-72
2020/12/16 06:54:07;;;;;;;34.85;12.88;;;;;;;;;;5096575;28;20040;-72
2020/12/16 06:56:33;;;;;;;226.52;16.33;;;;;;;;;;5096256;28;20032;-72
2020/12/16 06:58:58;;;;;;;13.60;11.70;;;;;;;;;;5096366;28;20059;-72
2020/12/16 07:01:24;;;;;;;14.75;11.32;;;;;;;;;;5096215;28;20036;-72
2020/12/16 07:03:50;;;;;;;13.50;10.73;;;;;;;;;;5096507;28;20374;-72
2020/12/16 07:06:27;;;;;;;13.70;10.63;;;;;;;;;;5096273;28;20048;-72
2020/12/16 07:09:21;;;;;;;25.13;12.10;;;;;;;;;;5095531;28;20043;-72
2020/12/16 07:11:51;;;;;;;12.80;10.60;;;;;;;;;;5096206;28;20032;-72
2020/12/16 07:14:25;;;;;;;12.55;10.68;;;;;;;;;;5095876;28;20466;-72
2020/12/16 07:16:51;;;;;;;19.45;13.75;;;;;;;;;;5093418;28;20040;-72
2020/12/16 07:19:27;;;;;;;22.92;16.08;;;;;;;;;;5096136;28;20111;-72
2020/12/16 07:21:55;;;;;;;15.77;12.60;;;;;;;;;;5095805;28;20040;-72
2020/12/16 07:24:22;;;;;;;19.30;13.88;;;;;;;;;;5077842;28;20032;-72
2020/12/16 07:26:55;;;;;;;15.90;12.55;;;;;;;;;;5095869;28;20054;-72
2020/12/16 07:29:27;;;;;;;14.90;11.70;;;;;;;;;;5095969;28;20101;-72
2020/12/16 07:32:04;;;;;;;16.33;12.65;;;;;;;;;;5095409;28;20032;-72
2020/12/16 07:34:32;;;;;;;32.05;17.42;;;;;;;;;;5095727;28;20122;-72
2020/12/16 07:37:03;;;;;;;35.55;20.60;;;;;;;;;;5095605;28;20121;-72
2020/12/16 07:39:30;;;;;;;28.65;19.70;;;;;;;;;;5095689;28;20036;-72
2020/12/16 07:41:58;;;;;;;29.33;19.60;;;;;;;;;;5095528;28;20047;-72
2020/12/16 07:44:24;;;;;;;26.52;18.55;;;;;;;;;;5095638;28;20382;-72
2020/12/16 07:47:00;;;;;;;21.23;15.80;;;;;;;;;;5095091;28;20043;-72
2020/12/16 07:49:27;;;;;;;;;;;;;;;;;;5095978;28;20032;-72
2020/12/16 07:51:59;;;;;;;25.40;18.45;;;;;;;;;;5095584;28;20013;-72
2020/12/16 07:54:24;;;;;;;28.05;18.48;;;;;;;;;;5095411;28;20059;-72
2020/12/16 07:56:50;;;;;;;24.30;17.17;;;;;;;;;;5095171;28;20077;-72
2020/12/16 07:59:15;;;;;;;24.02;17.40;;;;;;;;;;5094037;28;20135;-72
2020/12/16 08:01:41;;;;;;;32.95;19.83;;;;;;;;;;5095239;28;20043;-72
2020/12/16 08:04:06;;;;;;;25.42;17.83;;;;;;;;;;5094265;28;20044;-72
2020/12/16 08:06:32;;;;;;;25.23;17.45;;;;;;;;;;5095106;28;20034;-72
2020/12/16 08:08:58;;;;;;;44.38;16.75;;;;;;;;;;5095204;28;20027;-72
2020/12/16 08:11:28;;;;;;;34.22;21.48;;;;;;;;;;5095041;28;20497;-72
2020/12/16 08:14:04;;;;;;;25.08;17.83;;;;;;;;;;5094930;28;20089;-72
2020/12/16 08:16:31;;;;;;;24.42;18.10;;;;;;;;;;5094779;28;20035;-72
2020/12/16 08:18:57;;;;;;;20.88;15.80;;;;;;;;;;5094537;28;20107;-72
2020/12/16 08:21:24;;;;;;;20.75;15.48;;;;;;;;;;5094417;28;20089;-72
2020/12/16 08:23:51;;;;;;;18.02;14.18;;;;;;;;;;5094813;28;20039;-72
2020/12/16 08:26:18;;;;;;;20.42;14.48;;;;;;;;;;5094765;28;20136;-72
2020/12/16 08:28:44;;;;;;;23.85;16.92;;;;;;;;;;5094861;28;20066;-72
2020/12/16 08:31:10;;;;;;;21.10;16.65;;;;;;;;;;5094317;28;20040;-72
2020/12/16 08:33:37;;;;;;;50.25;32.10;;;;;;;;;;5094346;28;20111;-72
2020/12/16 08:36:09;;;;;;;57.67;32.88;;;;;;;;;;5094514;28;20046;-72
2020/12/16 08:38:41;;;;;;;35.63;23.33;;;;;;;;;;5094204;28;20071;-71
2020/12/16 08:41:09;;;;;;;28.65;21.25;;;;;;;;;;5094454;28;20397;-71
2020/12/16 08:43:37;;;;;;;28.15;19.92;;;;;;;;;;5094596;28;20047;-72
2020/12/16 08:46:08;;;;;;;25.08;19.38;;;;;;;;;;5094062;28;20036;-71
2020/12/16 08:48:46;;;;;;;25.60;19.30;;;;;;;;;;5093651;28;20386;-72
2020/12/16 08:51:22;;;;;;;24.55;17.58;;;;;;;;;;5094409;28;20036;-73
2020/12/16 08:53:59;;;;;;;61.92;16.45;;;;;;;;;;5094370;28;20547;-73
2020/12/16 08:56:28;;;;;;;18.00;13.65;;;;;;;;;;5094133;28;20043;-75
2020/12/16 08:59:02;;;;;;;19.58;15.15;;;;;;;;;;5094214;28;20131;-75
2020/12/16 09:01:27;;;;;;;18.67;14.98;;;;;;;;;;5093687;28;20063;-74
2020/12/16 09:03:52;;;;;;;19.80;15.25;;;;;;;;;;5094070;28;20074;-74
2020/12/16 09:06:18;;;;;;;19.17;14.07;;;;;;;;;;5094032;28;20400;-74
2020/12/16 09:08:43;;;;;;;15.40;13.52;;;;;;;;;;5094089;28;20119;-74
2020/12/16 09:11:09;;;;;;;19.30;13.98;;;;;;;;;;5094018;28;20036;-74
2020/12/16 09:13:34;;;;;;;20.23;14.88;;;;;;;;;;5093832;28;20032;-74
2020/12/16 09:15:59;;;;;;;37.22;22.23;;;;;;;;;;5093561;28;20146;-73
2020/12/16 09:18:27;;;;;;;25.23;18.58;;;;;;;;;;5093919;28;20071;-75
2020/12/16 09:20:52;;;;;;;25.73;18.60;;;;;;;;;;5093728;28;20438;-75
2020/12/16 09:23:25;;;;;;;30.10;18.90;;;;;;;;;;5093659;28;20093;-74
2020/12/16 09:25:51;;;;;;;47.75;21.80;;;;;;;;;;5073155;28;20032;-74
2020/12/16 09:28:18;;;;;;;25.15;17.33;;;;;;;;;;5073596;28;20090;-74
2020/12/16 09:30:43;;;;;;;20.88;16.17;;;;;;;;;;5073076;28;20033;-74
2020/12/16 09:33:11;;;;;;;20.95;15.43;;;;;;;;;;5073493;28;20518;-75
2020/12/16 09:35:37;;;;;;;21.48;15.57;;;;;;;;;;5073414;28;20082;-74
2020/12/16 09:38:17;;;;;;;23.13;16.92;;;;;;;;;;5073511;28;20051;-74
2020/12/16 09:40:44;;;;;;;21.02;15.63;;;;;;;;;;5071680;28;20067;-74
2020/12/16 09:43:10;;;;;;;22.85;16.58;;;;;;;;;;5073312;28;20051;-74
2020/12/16 09:45:38;;;;;;;20.50;15.27;;;;;;;;;;5073185;28;20052;-74
2020/12/16 09:48:04;;;;;;;19.60;15.48;;;;;;;;;;5073358;28;20457;-74
2020/12/16 09:50:32;;;;;;;18.25;14.30;;;;;;;;;;5073321;28;20615;-74
2020/12/16 09:53:00;;;;;;;17.10;13.68;;;;;;;;;;5084782;28;20075;-74
2020/12/16 09:55:27;;;;;;;16.77;13.38;;;;;;;;;;5093089;28;20040;-74
2020/12/16 09:58:05;;;;;;;18.50;14.57;;;;;;;;;;5093340;28;20044;-74
2020/12/16 10:00:32;;;;;;;19.50;15.15;;;;;;;;;;5093344;28;20048;-75
2020/12/16 10:03:09;;;;;;;20.05;15.63;;;;;;;;;;5093244;28;20032;-74
2020/12/16 10:05:36;;;;;;;22.27;16.58;;;;;;;;;;5093268;28;20024;-75
2020/12/16 10:08:02;;;;;;;20.83;15.68;;;;;;;;;;5093300;28;20035;-74
2020/12/16 10:10:29;;;;;;;18.65;15.05;;;;;;;;;;5093017;28;20044;-74
2020/12/16 10:12:55;;;;;;;20.38;16.35;;;;;;;;;;5093324;28;20081;-74
2020/12/16 10:15:21;;;;;;;21.92;15.68;;;;;;;;;;5091776;28;20028;-75
2020/12/16 10:17:46;;;;;;;21.48;15.25;;;;;;;;;;5092091;28;20031;-75
2020/12/16 10:20:11;;;;;;;21.98;15.23;;;;;;;;;;5093344;28;20032;-74
2020/12/16 10:22:37;;;;;;;18.73;15.45;;;;;;;;;;5093095;28;20040;-74
2020/12/16 10:25:04;;;;;;;21.95;16.88;;;;;;;;;;5092724;28;20131;-74
2020/12/16 10:27:32;;;;;;;20.10;15.85;;;;;;;;;;5092877;28;20133;-74
2020/12/16 10:30:01;;;;;;;20.58;15.27;;;;;;;;;;5093171;28;20403;-75
2020/12/16 10:32:26;;;;;;;16.83;12.68;;;;;;;;;;5093171;28;20089;-74
2020/12/16 10:34:53;;;;;;;16.10;12.07;;;;;;;;;;5093137;28;20485;-75
2020/12/16 10:37:22;;;;;;;16.40;12.10;;;;;;;;;;5092743;28;20047;-75
2020/12/16 10:39:48;;;;;;;17.08;12.50;;;;;;;;;;5092736;28;20040;-75
2020/12/16 10:42:14;;;;;;;17.35;12.57;;;;;;;;;;5092883;28;20097;-73
2020/12/16 10:44:40;;;;;;;14.65;11.50;;;;;;;;;;5096849;28;20461;-74
2020/12/16 10:47:06;;;;;;;14.07;10.98;;;;;;;;;;5096675;28;20093;-75
2020/12/16 10:49:32;;;;;;;15.93;11.82;;;;;;;;;;5095426;28;20074;-75
2020/12/16 10:52:10;;;;;;;14.30;11.45;;;;;;;;;;5096502;28;20474;-75
2020/12/16 10:54:35;;;;;;;17.40;11.68;;;;;;;;;;5096230;28;20127;-75
2020/12/16 10:57:01;;;;;;;14.85;11.50;;;;;;;;;;5096493;28;20119;-75
2020/12/16 10:59:29;;;;;;;20.02;11.10;;;;;;;;;;5095290;28;20127;-75
2020/12/16 11:01:55;;;;;;;13.68;10.70;;;;;;;;;;5096396;28;20378;-75
2020/12/16 11:04:21;;;;;;;12.65;9.40;;;;;;;;;;5095182;28;20070;-75
2020/12/16 11:06:48;;;;;;;16.83;11.20;;;;;;;;;;5096341;28;20024;-75
2020/12/16 11:09:17;;;;;;;14.73;10.57;;;;;;;;;;5096300;28;20036;-74
2020/12/16 11:11:51;;;;;;;15.55;10.77;;;;;;;;;;5096196;28;20040;-75
2020/12/16 11:14:17;;;;;;;14.15;10.88;;;;;;;;;;5095988;28;20032;-75
2020/12/16 11:16:44;;;;;;;15.43;11.60;;;;;;;;;;5096066;28;20593;-75
2020/12/16 11:19:10;;;;;;;15.98;11.13;;;;;;;;;;5096220;28;20043;-74
2020/12/16 11:21:41;;;;;;;12.80;10.25;;;;;;;;;;5094780;28;20499;-74
2020/12/16 11:24:11;;;;;;;14.88;10.30;;;;;;;;;;5095844;28;20034;-75
2020/12/16 11:26:38;;;;;;;13.15;9.88;;;;;;;;;;5095826;28;20085;-76
2020/12/16 11:29:06;;;;;;;16.38;11.30;;;;;;;;;;5094669;28;20043;-76
2020/12/16 11:31:31;;;;;;;15.73;12.00;;;;;;;;;;5095622;28;20043;-76
2020/12/16 11:33:57;;;;;;;15.10;11.88;;;;;;;;;;5095836;28;20024;-76
2020/12/16 11:36:22;;;;;;;16.65;12.25;;;;;;;;;;5097868;28;20056;-76
2020/12/16 11:38:47;;;;;;;15.43;11.70;;;;;;;;;;5077553;28;20539;-76
2020/12/16 11:41:13;;;;;;;17.48;12.73;;;;;;;;;;5095325;28;20490;-76
2020/12/16 11:43:38;;;;;;;21.60;12.60;;;;;;;;;;5095562;28;20059;-75
2020/12/16 11:46:03;;;;;;;21.55;14.93;;;;;;;;;;5111028;28;20032;-74
2020/12/16 11:48:29;;;;;;;20.88;14.50;;;;;;;;;;5115524;28;20027;-75
2020/12/16 11:50:54;;;;;;;23.30;16.25;;;;;;;;;;5115757;28;20042;-74
2020/12/16 11:53:20;;;;;;;22.35;15.85;;;;;;;;;;5115161;28;20090;-74
2020/12/16 11:55:46;;;;;;;22.58;14.25;;;;;;;;;;5114346;28;20032;-75
2020/12/16 11:58:11;;;;;;;20.17;12.75;;;;;;;;;;5111638;28;20028;-74
2020/12/16 12:00:36;;;;;;;15.95;12.45;;;;;;;;;;5095143;28;20461;-75
2020/12/16 12:03:02;;;;;;;15.20;12.15;;;;;;;;;;5095115;28;20113;-75
2020/12/16 12:05:27;;;;;;;16.13;11.90;;;;;;;;;;5095192;28;20036;-75
2020/12/16 12:07:52;;;;;;;14.65;10.95;;;;;;;;;;5094608;28;20055;-75
2020/12/16 12:10:18;;;;;;;16.70;12.80;;;;;;;;;;5095076;28;20543;-75
2020/12/16 12:12:43;;;;;;;15.90;12.52;;;;;;;;;;5095022;28;20108;-74
2020/12/16 12:15:11;;;;;;;15.73;12.40;;;;;;;;;;5093473;28;20373;-74
2020/12/16 12:17:36;;;;;;;17.13;12.13;;;;;;;;;;5095076;28;20036;-75
2020/12/16 12:20:02;;;;;;;14.20;10.85;;;;;;;;;;5095033;28;20401;-75
2020/12/16 12:22:27;;;;;;;15.30;10.63;;;;;;;;;;5094524;28;20058;-75
2020/12/16 12:24:52;;;;;;;14.68;10.07;;;;;;;;;;5094939;28;20036;-75
2020/12/16 12:27:19;;;;;;;12.73;9.65;;;;;;;;;;5094749;28;20039;-75
2020/12/16 12:29:45;;;;;;;12.68;9.68;;;;;;;;;;5094371;28;20492;-75
2020/12/16 12:32:10;;;;;;;12.90;9.27;;;;;;;;;;5093661;28;20032;-76
2020/12/16 12:34:35;;;;;;;13.55;10.07;;;;;;;;;;5094630;28;20020;-76
2020/12/16 12:37:01;;;;;;;14.40;9.77;;;;;;;;;;5094675;28;20111;-75
2020/12/16 12:39:27;;;;;;;14.85;10.30;;;;;;;;;;5094545;28;20031;-75
2020/12/16 12:41:53;;;;;;;14.00;9.68;;;;;;;;;;5094692;28;20485;-75
2020/12/16 12:44:19;;;;;;;13.45;10.43;;;;;;;;;;5094303;28;20020;-75
2020/12/16 12:46:48;;;;;;;14.00;10.65;;;;;;;;;;5084677;28;20488;-74
2020/12/16 12:49:13;;;;;;;13.95;10.50;;;;;;;;;;5081916;28;20035;-75
2020/12/16 12:51:39;;;;;;;11.57;9.07;;;;;;;;;;5094402;28;20043;-74
2020/12/16 12:54:04;;;;;;;13.60;9.23;;;;;;;;;;5094302;28;20067;-75
2020/12/16 12:56:29;;;;;;;11.48;8.38;;;;;;;;;;5094195;28;20044;-75
2020/12/16 12:58:55;;;;;;;11.60;8.25;;;;;;;;;;5094027;28;20054;-75
2020/12/16 13:01:21;;;;;;;10.75;8.35;;;;;;;;;;5094041;28;20109;-75
2020/12/16 13:03:47;;;;;;;12.30;8.48;;;;;;;;;;5093908;28;20035;-75
2020/12/16 13:06:12;;;;;;;11.95;9.05;;;;;;;;;;5093549;28;20032;-75
2020/12/16 13:08:38;;;;;;;12.60;9.70;;;;;;;;;;5094069;28;20090;-75
2020/12/16 13:11:03;;;;;;;11.95;9.63;;;;;;;;;;5092722;28;20050;-75
2020/12/16 13:13:29;;;;;;;13.80;10.02;;;;;;;;;;5093801;28;20024;-75
2020/12/16 13:15:55;;;;;;;18.30;12.02;;;;;;;;;;5094145;28;20536;-75
2020/12/16 13:18:20;;;;;;;14.35;11.45;;;;;;;;;;5093691;28;20086;-75
2020/12/16 13:20:46;;;;;;;14.27;10.23;;;;;;;;;;5093896;28;20386;-75
2020/12/16 13:23:11;;;;;;;13.25;9.48;;;;;;;;;;5093326;28;20043;-75
2020/12/16 13:25:36;;;;;;;12.70;9.70;;;;;;;;;;5092383;28;20040;-75
2020/12/16 13:28:02;;;;;;;15.90;9.50;;;;;;;;;;5092564;28;20039;-75
2020/12/16 13:30:28;;;;;;;15.75;10.23;;;;;;;;;;5093716;28;20559;-75
2020/12/16 13:32:53;;;;;;;12.98;9.70;;;;;;;;;;5093764;28;20024;-75
2020/12/16 13:35:18;;;;;;;13.48;10.15;;;;;;;;;;5093665;28;20482;-75
2020/12/16 13:37:44;;;;;;;13.48;10.95;;;;;;;;;;5092457;28;20119;-76
2020/12/16 13:40:09;;;;;;;13.38;9.85;;;;;;;;;;5093708;28;20075;-75
2020/12/16 13:42:34;;;;;;;14.48;10.27;;;;;;;;;;5093254;28;20078;-75
2020/12/16 13:45:00;;;;;;;16.58;9.70;;;;;;;;;;5093613;28;20094;-76
2020/12/16 13:47:25;;;;;;;15.90;10.75;;;;;;;;;;5093487;28;20436;-75
2020/12/16 13:49:51;;;;;;;14.05;10.48;;;;;;;;;;5093623;28;20123;-75
2020/12/16 13:52:16;;;;;;;15.75;10.77;;;;;;;;;;5091400;28;20024;-75
2020/12/16 13:54:43;;;;;;;15.40;11.00;;;;;;;;;;5092138;28;20412;-76
2020/12/16 13:57:09;;;;;;;16.98;10.95;;;;;;;;;;5093075;28;20036;-75
2020/12/16 13:59:36;;;;;;;15.88;9.93;;;;;;;;;;5093268;28;20043;-76
2020/12/16 14:02:02;;;;;;;13.95;9.27;;;;;;;;;;5093253;28;20044;-75
2020/12/16 14:04:27;;;;;;;12.05;9.65;;;;;;;;;;5093414;28;20036;-76
2020/12/16 14:06:53;;;;;;;11.48;8.85;;;;;;;;;;5093394;28;20386;-75
2020/12/16 14:09:19;;;;;;;13.65;8.88;;;;;;;;;;5092161;28;20043;-76
2020/12/16 14:11:44;;;;;;;11.98;8.80;;;;;;;;;;5093046;28;20055;-75
2020/12/16 14:14:09;;;;;;;11.38;8.00;;;;;;;;;;5093229;28;20406;-76
2020/12/16 14:16:35;;;;;;;12.40;7.97;;;;;;;;;;5093255;28;20101;-75
2020/12/16 14:19:00;;;;;;;12.88;8.77;;;;;;;;;;5095475;28;20038;-75
2020/12/16 14:21:25;;;;;;;14.38;10.82;;;;;;;;;;5097290;28;20040;-76
2020/12/16 14:23:51;;;;;;;15.45;9.60;;;;;;;;;;5095921;28;20067;-75
2020/12/16 14:26:16;;;;;;;11.63;7.28;;;;;;;;;;5096802;28;20114;-75
2020/12/16 14:28:43;;;;;;;7.95;6.38;;;;;;;;;;5097186;28;20079;-75